Terminal Aerodrome Forecast
Issued by NWS

Home | Current Version | Previous Version | Text Only | Print | Product List | Glossary Off
Versions: 1 2 3 4 5 6 7 8 9 10 11 12 13 14 15 16 17 18 19 20 21 22 23

000
FTUS43 KMPX 241557 AAC
TAFAXN
TAF AMD
KAXN 241557Z 2416/2512 33019G30KT 6SM -SN OVC025
      TEMPO 2416/2418 2SM -SN OVC015
     FM242300 32014G24KT P6SM FEW015
     FM250400 31010KT P6SM SCT100
     FM251100 26005KT P6SM OVC100=

USA.gov is the U.S. government's official web portal to all federal, state and local government web resources and services.